createdAt,value
2019-02-08T00:00:20.940Z,96.20
2019-02-08T00:03:11.284Z,96.30
2019-02-08T00:05:44.449Z,96.30
2019-02-08T00:08:19.957Z,96.30
2019-02-08T00:10:59.646Z,96.60
2019-02-08T00:13:52.688Z,96.40
2019-02-08T00:16:28.336Z,96.80
2019-02-08T00:19:07.260Z,96.90
2019-02-08T00:21:45.035Z,96.80
2019-02-08T00:24:23.486Z,96.80
2019-02-08T00:27:03.442Z,96.60
2019-02-08T00:29:39.943Z,96.80
2019-02-08T00:32:16.168Z,96.20
2019-02-08T00:34:58.127Z,95.90
2019-02-08T00:37:37.655Z,95.60
2019-02-08T00:40:14.152Z,95.60
2019-02-08T00:42:50.419Z,95.40
2019-02-08T00:45:25.447Z,95.30
2019-02-08T00:47:59.951Z,96.20
2019-02-08T00:50:34.940Z,96.40
2019-02-08T00:53:09.965Z,96.60
2019-02-08T00:55:46.810Z,96.60
2019-02-08T00:58:25.538Z,96.60
2019-02-08T01:01:00.155Z,96.50
2019-02-08T01:03:35.801Z,96.50
2019-02-08T01:06:09.945Z,96.50
2019-02-08T01:08:44.231Z,96.40
2019-02-08T01:11:19.945Z,96.00
2019-02-08T01:13:54.948Z,95.80
2019-02-08T01:16:28.953Z,95.70
2019-02-08T01:19:02.962Z,95.80
2019-02-08T01:21:38.169Z,95.60
2019-02-08T01:24:13.817Z,95.80
2019-02-08T01:26:47.829Z,95.30
2019-02-08T01:29:22.451Z,95.20
2019-02-08T01:31:57.486Z,95.60
2019-02-08T01:34:33.343Z,95.40
2019-02-08T01:37:11.239Z,95.30
2019-02-08T01:39:47.948Z,95.60
2019-02-08T01:42:21.957Z,96.50
2019-02-08T01:44:57.157Z,96.00
2019-02-08T01:47:31.169Z,96.10
2019-02-08T01:50:05.585Z,95.80
2019-02-08T01:52:41.245Z,95.60
2019-02-08T01:55:16.955Z,95.60
2019-02-08T01:57:51.300Z,95.40
2019-02-08T02:00:38.212Z,95.50
2019-02-08T02:03:14.884Z,95.50
2019-02-08T02:05:51.963Z,95.20
2019-02-08T02:08:26.180Z,95.40
2019-02-08T02:11:01.829Z,95.70
2019-02-08T02:13:35.963Z,95.80
2019-02-08T02:16:10.462Z,95.70
2019-02-08T02:18:44.959Z,95.90
2019-02-08T02:21:18.961Z,96.10
2019-02-08T02:23:56.179Z,96.30
2019-02-08T02:26:29.959Z,95.70
2019-02-08T02:29:05.629Z,95.60
2019-02-08T02:31:39.961Z,96.60
2019-02-08T02:34:15.494Z,96.60
2019-02-08T02:36:49.970Z,96.70
2019-02-08T02:39:24.328Z,96.70
2019-02-08T02:41:58.981Z,96.80
2019-02-08T02:44:35.959Z,96.50
2019-02-08T02:47:09.965Z,96.60
2019-02-08T02:49:43.440Z,96.50
2019-02-08T02:52:19.292Z,96.60
2019-02-08T02:54:55.348Z,96.60
2019-02-08T02:57:30.179Z,96.70
2019-02-08T03:00:04.187Z,96.50
2019-02-08T03:02:39.220Z,96.40
2019-02-08T03:05:13.962Z,96.30
2019-02-08T03:07:48.878Z,96.20
2019-02-08T03:10:23.974Z,95.90
2019-02-08T03:12:59.355Z,96.00
2019-02-08T03:15:34.182Z,95.90
2019-02-08T03:18:10.447Z,95.90
2019-02-08T03:20:48.580Z,95.40
2019-02-08T03:23:25.427Z,94.60
2019-02-08T03:26:00.471Z,94.50
2019-02-08T03:28:35.975Z,94.60
2019-02-08T03:31:10.326Z,94.80
2019-02-08T03:33:44.973Z,94.40
2019-02-08T03:36:20.187Z,94.90
2019-02-08T03:39:04.641Z,95.10
2019-02-08T03:41:39.486Z,94.70
2019-02-08T03:44:14.972Z,94.40
2019-02-08T03:46:48.972Z,94.70
2019-02-08T03:49:22.969Z,95.20
2019-02-08T03:51:57.554Z,95.50
2019-02-08T03:54:33.425Z,95.70
2019-02-08T03:57:08.468Z,95.50
2019-02-08T03:59:42.245Z,95.40
2019-02-08T04:02:17.970Z,95.50
2019-02-08T04:04:52.324Z,95.40
2019-02-08T04:07:28.373Z,95.60
2019-02-08T04:10:03.199Z,95.50
2019-02-08T04:12:38.438Z,95.30
2019-02-08T04:15:14.970Z,95.30
2019-02-08T04:17:49.990Z,95.10
2019-02-08T04:30:06.204Z,96.40
2019-02-08T04:36:16.479Z,96.50
2019-02-08T04:42:22.450Z,96.40
2019-02-08T04:48:15.528Z,96.20
2019-02-08T04:54:37.901Z,96.50
2019-02-08T04:57:07.009Z,96.60
2019-02-08T04:59:41.195Z,96.50
2019-02-08T05:02:15.202Z,96.50
2019-02-08T05:04:51.465Z,96.40
2019-02-08T05:07:28.551Z,96.00
2019-02-08T05:10:02.993Z,96.30
2019-02-08T05:12:38.620Z,96.50
2019-02-08T05:15:14.987Z,96.60
2019-02-08T05:17:52.367Z,96.70
2019-02-08T05:20:29.459Z,96.80
2019-02-08T05:23:04.483Z,97.00
2019-02-08T05:25:39.986Z,96.70
2019-02-08T05:28:15.381Z,96.60
2019-02-08T05:30:50.202Z,96.60
2019-02-08T05:33:24.210Z,96.50
2019-02-08T05:36:00.264Z,96.20
2019-02-08T05:38:36.528Z,96.20
2019-02-08T05:41:15.000Z,96.20
2019-02-08T05:43:54.663Z,95.90
2019-02-08T05:46:34.325Z,95.90
2019-02-08T05:49:10.003Z,95.60
2019-02-08T05:51:44.009Z,95.40
2019-02-08T05:54:18.197Z,95.40
2019-02-08T05:56:54.668Z,95.50
2019-02-08T05:59:28.992Z,95.70
2019-02-08T06:02:04.323Z,95.60
2019-02-08T06:04:47.557Z,95.20
2019-02-08T06:07:23.831Z,95.20
2019-02-08T06:09:59.464Z,94.80
2019-02-08T06:12:34.294Z,94.30
2019-02-08T06:15:13.116Z,94.40
2019-02-08T06:17:51.529Z,94.50
2019-02-08T06:20:29.630Z,94.60
2019-02-08T06:23:11.212Z,94.30
2019-02-08T06:25:47.488Z,93.90
2019-02-08T06:28:28.458Z,94.10
2019-02-08T06:31:08.428Z,94.20
2019-02-08T06:33:43.036Z,94.10
2019-02-08T06:36:17.952Z,94.10
2019-02-08T06:38:54.212Z,93.90
2019-02-08T06:41:29.889Z,94.00
2019-02-08T06:47:54.043Z,94.00
2019-02-08T06:54:03.875Z,93.60
2019-02-08T06:57:12.353Z,93.70
2019-02-08T07:02:51.502Z,93.40
2019-02-08T07:05:47.315Z,93.30
2019-02-08T07:08:29.839Z,93.30
2019-02-08T07:11:35.788Z,93.40
2019-02-08T07:14:32.733Z,93.50
2019-02-08T07:20:40.208Z,93.40
2019-02-08T07:27:04.465Z,93.10
2019-02-08T07:33:35.445Z,92.80
2019-02-08T07:40:10.245Z,92.80
2019-02-08T07:47:05.026Z,92.10
2019-02-08T07:49:59.169Z,91.70
2019-02-08T07:56:28.325Z,91.40
2019-02-08T08:02:17.992Z,91.10
2019-02-08T08:08:26.528Z,91.20
2019-02-08T08:17:39.897Z,90.60
2019-02-08T08:20:36.841Z,90.70
2019-02-08T08:23:43.826Z,90.70
2019-02-08T08:29:52.318Z,90.80
2019-02-08T08:32:33.317Z,90.40
2019-02-08T08:35:53.733Z,90.30
2019-02-08T08:42:40.320Z,89.30
2019-02-08T08:45:41.335Z,88.80
2019-02-08T08:52:21.890Z,87.50
2019-02-08T08:55:29.895Z,87.70
2019-02-08T08:58:43.706Z,87.90
2019-02-08T09:01:53.896Z,86.70
2019-02-08T09:04:50.650Z,85.30
2019-02-08T09:11:49.332Z,86.50
2019-02-08T09:15:12.330Z,87.50
2019-02-08T09:18:33.237Z,87.50
2019-02-08T09:21:57.335Z,87.30
2019-02-08T09:25:00.288Z,87.70
2019-02-08T09:28:16.333Z,88.00
2019-02-08T09:31:22.546Z,88.00
2019-02-08T09:38:05.798Z,88.00
2019-02-08T09:41:09.490Z,87.30
2019-02-08T09:44:24.913Z,87.30
2019-02-08T09:47:43.541Z,87.50
2019-02-08T09:51:05.686Z,87.90
2019-02-08T09:54:07.758Z,87.30
2019-02-08T10:00:55.334Z,88.20
2019-02-08T10:07:29.944Z,87.90
2019-02-08T10:10:45.363Z,88.10
2019-02-08T10:14:13.813Z,88.20
2019-02-08T10:17:27.552Z,88.70
2019-02-08T10:20:38.335Z,89.00
2019-02-08T10:23:49.581Z,88.90
2019-02-08T10:27:02.836Z,88.10
2019-02-08T10:30:19.647Z,87.50
2019-02-08T10:33:31.544Z,87.50
2019-02-08T10:36:41.338Z,86.70
2019-02-08T10:39:51.858Z,86.90
2019-02-08T10:43:11.361Z,86.20
2019-02-08T10:46:51.903Z,85.50
2019-02-08T10:50:01.960Z,86.10
2019-02-08T10:53:21.841Z,87.00
2019-02-08T10:56:55.243Z,85.00
2019-02-08T11:00:23.356Z,83.60
2019-02-08T11:03:41.565Z,84.20
2019-02-08T11:06:55.353Z,83.60
2019-02-08T11:13:39.788Z,84.90
2019-02-08T11:16:40.830Z,86.30
2019-02-08T11:19:20.983Z,86.60
2019-02-08T11:21:57.658Z,86.80
2019-02-08T11:24:33.713Z,86.70
2019-02-08T11:27:08.366Z,85.50
2019-02-08T11:29:45.625Z,84.00
2019-02-08T11:32:20.864Z,83.50
2019-02-08T11:38:35.369Z,82.70
2019-02-08T11:41:09.860Z,82.70
2019-02-08T11:43:48.303Z,81.40
2019-02-08T11:46:21.977Z,80.90
2019-02-08T11:48:58.239Z,81.40
2019-02-08T11:51:32.861Z,81.60
2019-02-08T11:54:09.942Z,81.90
2019-02-08T11:56:44.776Z,81.80
2019-02-08T11:59:20.402Z,81.90
2019-02-08T12:01:55.862Z,82.30
2019-02-08T12:04:32.687Z,81.60
2019-02-08T12:07:07.403Z,81.00
2019-02-08T12:09:41.408Z,80.90
2019-02-08T12:12:16.611Z,80.10
2019-02-08T12:14:53.077Z,80.80
2019-02-08T12:17:27.918Z,80.20
2019-02-08T12:20:03.411Z,80.30
2019-02-08T12:22:38.424Z,79.70
2019-02-08T12:25:13.622Z,80.30
2019-02-08T12:27:49.892Z,80.10
2019-02-08T12:30:29.015Z,83.50
2019-02-08T12:33:03.848Z,84.00
2019-02-08T12:35:40.105Z,84.10
2019-02-08T12:38:15.957Z,84.10
2019-02-08T12:40:51.440Z,83.60
2019-02-08T12:43:28.686Z,82.10
2019-02-08T12:46:04.409Z,81.70
2019-02-08T12:51:34.323Z,80.60
2019-02-08T12:54:09.412Z,80.20
2019-02-08T12:56:45.616Z,80.60
2019-02-08T12:59:20.420Z,80.80
2019-02-08T13:02:00.963Z,82.20
2019-02-08T13:04:36.425Z,82.30
2019-02-08T13:07:19.012Z,82.10
2019-02-08T13:09:54.060Z,82.00
2019-02-08T13:12:29.898Z,81.70
2019-02-08T13:15:05.960Z,81.50
2019-02-08T13:17:41.808Z,81.70
2019-02-08T13:20:30.976Z,81.20
2019-02-08T13:23:10.721Z,81.60
2019-02-08T13:25:46.776Z,81.80
2019-02-08T13:28:23.042Z,82.80
2019-02-08T13:31:03.037Z,82.80
2019-02-08T13:33:41.917Z,82.90
2019-02-08T13:36:20.026Z,81.90
2019-02-08T13:38:59.539Z,81.20
2019-02-08T13:41:33.986Z,80.50
2019-02-08T13:44:11.397Z,80.10
2019-02-08T13:46:46.906Z,79.70
2019-02-08T13:49:42.831Z,78.50
2019-02-08T13:51:58.439Z,78.70
2019-02-08T13:54:33.849Z,78.90
2019-02-08T13:57:07.859Z,79.10
2019-02-08T13:59:43.440Z,78.90
2019-02-08T14:02:16.902Z,79.00
2019-02-08T14:04:51.731Z,79.20
2019-02-08T14:07:29.875Z,79.60
2019-02-08T14:10:04.667Z,79.20
2019-02-08T14:12:56.905Z,78.90
2019-02-08T14:15:31.735Z,79.00
2019-02-08T14:18:07.787Z,79.00
2019-02-08T14:20:42.413Z,79.70
2019-02-08T14:23:17.654Z,79.90
2019-02-08T14:25:51.664Z,79.20
2019-02-08T14:28:27.720Z,80.00
2019-02-08T14:31:03.447Z,80.00
2019-02-08T14:33:39.449Z,79.70
2019-02-08T14:36:17.943Z,77.60
2019-02-08T14:38:53.381Z,78.40
2019-02-08T14:41:28.445Z,79.00
2019-02-08T14:44:08.775Z,79.60
2019-02-08T14:46:44.012Z,80.20
2019-02-08T14:49:20.081Z,79.80
2019-02-08T14:51:55.937Z,79.60
2019-02-08T14:54:31.448Z,80.20
2019-02-08T14:57:16.311Z,80.20
2019-02-08T14:59:44.302Z,80.10
2019-02-08T15:02:19.746Z,79.50
2019-02-08T15:04:57.471Z,79.60
2019-02-08T15:07:38.451Z,79.60
2019-02-08T15:10:17.951Z,80.00
2019-02-08T15:12:52.781Z,80.70
2019-02-08T15:15:27.447Z,81.20
2019-02-08T15:18:01.448Z,81.00
2019-02-08T15:20:42.447Z,81.50
2019-02-08T15:23:17.561Z,81.50
2019-02-08T15:26:01.670Z,80.90
2019-02-08T15:28:31.992Z,80.80
2019-02-08T15:31:07.844Z,81.60
2019-02-08T15:33:43.287Z,81.70
2019-02-08T15:36:19.452Z,81.50
2019-02-08T15:38:54.448Z,81.90
2019-02-08T15:41:30.027Z,82.90
2019-02-08T15:44:08.952Z,83.10
2019-02-08T15:46:45.829Z,82.90
2019-02-08T15:49:24.140Z,82.90
2019-02-08T15:52:00.000Z,82.70
2019-02-08T15:54:35.842Z,83.10
2019-02-08T15:57:10.671Z,82.60
2019-02-08T15:59:47.140Z,83.10
2019-02-08T16:02:22.993Z,84.10
2019-02-08T16:15:02.087Z,84.90
2019-02-08T16:17:37.628Z,85.00
2019-02-08T16:23:29.093Z,84.50
2019-02-08T16:29:33.815Z,84.00
2019-02-08T16:35:44.301Z,84.40
2019-02-08T16:38:35.721Z,84.60
2019-02-08T16:41:09.324Z,84.40
2019-02-08T16:43:46.098Z,84.00
2019-02-08T16:46:21.634Z,84.00
2019-02-08T16:48:57.488Z,84.10
2019-02-08T16:51:33.339Z,83.90
2019-02-08T16:54:08.169Z,83.60
2019-02-08T16:56:43.816Z,83.40
2019-02-08T16:59:19.463Z,83.50
2019-02-08T17:01:54.909Z,83.90
2019-02-08T17:04:28.951Z,83.90
2019-02-08T17:07:03.987Z,83.80
2019-02-08T17:09:40.416Z,84.00
2019-02-08T17:12:15.452Z,83.80
2019-02-08T17:14:55.406Z,83.90
2019-02-08T17:17:32.967Z,83.90
2019-02-08T17:20:19.802Z,84.00
2019-02-08T17:22:54.433Z,84.20
2019-02-08T17:25:34.174Z,84.50
2019-02-08T17:28:10.230Z,84.70
2019-02-08T17:30:47.967Z,84.90
2019-02-08T17:33:22.558Z,84.50
2019-02-08T17:36:00.451Z,84.50
2019-02-08T17:38:37.530Z,84.50
2019-02-08T17:41:24.966Z,84.60
2019-02-08T17:44:00.296Z,85.00
2019-02-08T17:46:37.379Z,84.90
2019-02-08T17:49:16.947Z,84.80
2019-02-08T17:51:55.636Z,84.60
2019-02-08T17:54:30.958Z,84.80
2019-02-08T17:57:06.523Z,84.90
2019-02-08T17:59:42.784Z,85.00
2019-02-08T18:02:19.870Z,84.90
2019-02-08T18:04:55.587Z,84.70
2019-02-08T18:10:59.451Z,84.50
2019-02-08T18:13:35.308Z,85.00
2019-02-08T18:19:50.960Z,85.20
2019-02-08T18:22:33.845Z,85.00
2019-02-08T18:25:08.982Z,84.80
2019-02-08T18:27:45.965Z,85.00
2019-02-08T18:30:22.296Z,85.20
2019-02-08T18:32:56.961Z,85.50
2019-02-08T18:35:31.984Z,85.70
2019-02-08T18:38:07.192Z,85.70
2019-02-08T18:40:43.250Z,85.40
2019-02-08T18:43:18.967Z,85.40
2019-02-08T18:45:53.523Z,85.70
2019-02-08T18:48:30.195Z,85.70
2019-02-08T18:51:06.252Z,85.80
2019-02-08T18:53:41.986Z,85.90
2019-02-08T18:56:15.978Z,85.60
2019-02-08T18:58:51.352Z,85.50
2019-02-08T19:01:28.842Z,85.50
2019-02-08T19:04:03.468Z,85.70
2019-02-08T19:06:38.501Z,85.30
2019-02-08T19:09:14.865Z,85.20
2019-02-08T19:11:51.127Z,85.40
2019-02-08T19:14:26.981Z,85.30
2019-02-08T19:17:00.785Z,85.30
2019-02-08T19:19:38.071Z,85.30
2019-02-08T19:22:13.924Z,85.40
2019-02-08T19:24:49.162Z,85.60
2019-02-08T19:27:31.486Z,85.60
2019-02-08T19:30:08.242Z,85.60
2019-02-08T19:32:44.618Z,85.80
2019-02-08T19:35:19.568Z,85.20
2019-02-08T19:37:55.186Z,85.10
2019-02-08T19:40:42.620Z,85.00
2019-02-08T19:43:18.635Z,84.90
2019-02-08T19:45:56.584Z,85.10
2019-02-08T19:48:32.111Z,85.30
2019-02-08T19:51:11.246Z,85.50
2019-02-08T19:53:48.119Z,85.80
2019-02-08T19:56:23.594Z,85.50
2019-02-08T19:59:02.079Z,85.80
2019-02-08T20:01:38.954Z,85.70
2019-02-08T20:04:17.062Z,85.90
2019-02-08T20:06:55.653Z,85.80
2019-02-08T20:09:40.759Z,86.00
2019-02-08T20:12:17.622Z,86.10
2019-02-08T20:14:55.758Z,85.90
2019-02-08T20:17:36.191Z,85.90
2019-02-08T20:20:11.893Z,86.40
2019-02-08T20:22:51.072Z,86.30
2019-02-08T20:25:30.009Z,86.50
2019-02-08T20:28:05.963Z,86.40
2019-02-08T20:30:41.700Z,86.30
2019-02-08T20:33:22.116Z,86.10
2019-02-08T20:35:59.975Z,86.60
2019-02-08T20:38:37.195Z,86.40
2019-02-08T20:41:19.960Z,86.60
2019-02-08T20:44:04.718Z,86.30
2019-02-08T20:46:40.794Z,86.30
2019-02-08T20:49:15.517Z,86.60
2019-02-08T20:51:52.178Z,86.80
2019-02-08T20:54:31.519Z,87.00
2019-02-08T20:57:09.719Z,86.90
2019-02-08T20:59:47.632Z,87.00
2019-02-08T21:02:24.086Z,87.10
2019-02-08T21:05:00.255Z,88.00
2019-02-08T21:07:38.555Z,87.90
2019-02-08T21:10:13.011Z,87.90
2019-02-08T21:12:48.269Z,88.10
2019-02-08T21:15:24.783Z,88.10
2019-02-08T21:17:59.202Z,88.10
2019-02-08T21:20:38.844Z,88.30
2019-02-08T21:23:14.287Z,88.20
2019-02-08T21:25:53.005Z,88.00
2019-02-08T21:28:29.596Z,87.70
2019-02-08T21:31:04.814Z,87.40
2019-02-08T21:33:39.644Z,87.40
2019-02-08T21:36:16.146Z,87.20
2019-02-08T21:38:51.862Z,86.90
2019-02-08T21:41:29.456Z,87.10
2019-02-08T21:44:02.573Z,87.10
2019-02-08T21:46:38.088Z,86.90
2019-02-08T21:49:12.664Z,86.60
2019-02-08T21:51:50.205Z,87.00
2019-02-08T21:54:25.237Z,87.30
2019-02-08T21:56:59.861Z,87.60
2019-02-08T21:59:35.510Z,87.50
2019-02-08T22:02:09.935Z,87.40
2019-02-08T22:04:46.191Z,87.10
2019-02-08T22:07:30.235Z,87.20
2019-02-08T22:10:05.268Z,87.00
2019-02-08T22:12:41.120Z,86.70
2019-02-08T22:15:19.841Z,86.70
2019-02-08T22:17:56.105Z,86.60
2019-02-08T22:20:33.634Z,86.40
2019-02-08T22:23:08.660Z,85.90
2019-02-08T22:25:42.673Z,85.90
2019-02-08T22:28:19.642Z,86.00
2019-02-08T22:30:54.139Z,86.20
2019-02-08T22:33:29.639Z,85.60
2019-02-08T22:36:05.024Z,85.50
2019-02-08T22:38:42.514Z,85.00
2019-02-08T22:41:16.643Z,85.20
2019-02-08T22:43:49.921Z,85.40
2019-02-08T22:46:25.157Z,85.30
2019-02-08T22:48:59.647Z,85.00
2019-02-08T22:51:33.996Z,84.70
2019-02-08T22:54:09.032Z,84.70
2019-02-08T22:56:43.858Z,84.60
2019-02-08T22:59:26.070Z,84.70
2019-02-08T23:02:02.120Z,85.10
2019-02-08T23:04:37.151Z,85.20
2019-02-08T23:07:13.209Z,85.30
2019-02-08T23:09:47.659Z,85.50
2019-02-08T23:12:22.914Z,85.40
2019-02-08T23:14:58.924Z,85.40
2019-02-08T23:17:33.956Z,85.60
2019-02-08T23:20:10.668Z,85.80
2019-02-08T23:22:45.866Z,85.90
2019-02-08T23:25:22.131Z,85.80
2019-02-08T23:27:56.958Z,85.80
2019-02-08T23:30:31.992Z,86.30
2019-02-08T23:33:08.049Z,86.30
2019-02-08T23:35:43.322Z,86.30
2019-02-08T23:38:18.116Z,86.30
2019-02-08T23:40:52.677Z,86.20
2019-02-08T23:43:27.679Z,86.40
2019-02-08T23:46:01.990Z,86.40
2019-02-08T23:48:36.687Z,86.00
2019-02-08T23:51:12.258Z,86.10
2019-02-08T23:53:47.910Z,86.30
2019-02-08T23:56:23.967Z,86.40
2019-02-08T23:59:00.229Z,86.70
